LEAB/ABC METAR and TAF weather

Enter ICAO airport designator
Station Type Date Time Source
LEAB METAR 2020/07/04 09:00 UTC NOAA

LEAB 040900Z VRB04KT CAVOK 27/14 Q1023 NOSIG


Station Type Date Time Source
LEAB Decoded METAR 2020/07/04 09:00 UTC NOAA

Albacete / Los Llanos, Spain (LEAB) 38-57N 001-51W 704M
Jul 04, 2020 - 05:00 AM EDT / 2020.07.04 0900 UTC
Wind: Variable at 5 MPH (4 KT):0
Visibility: greater than 7 mile(s):0
Temperature: 80 F (27 C)
Dew Point: 57 F (14 C)
Relative Humidity: 44%
Pressure (altimeter): 30.21 in. Hg (1023 hPa)
ob: LEAB 040900Z VRB04KT CAVOK 27/14 Q1023 NOSIG
cycle: 9

Station Type Date Time Source
LEAB TAF 2018/04/26 18:51 UTC NOAA

TAF
AMD LEAB 261747Z 2618/2706 16012KT 9999 FEW040
BECMG 2704/2706 27015KT
TEMPO 2704/2706 BKN014

Example: see airport list